KBMI

Central Illinois Regional Airport

Airport
ICAO code
KBMI
IATA Code
BMI
Summary
ICAO Region
NAM
ICAO Territory
Location

McLean County, Illinois

Serving
Bloomington/Normal
Elevation
871 ft
Coordinates
40° 28' 38" N , 88° 54' 57" W
KCC
Airport CFIT
Altimeter Temperature Error Correction
Metar
KBMI 260056Z 20006KT 10SM CLR 07/02 A2980 RMK AO2 SLP093 T00720017

Description

Central Illinois Regional Airport at Bloomington-Normal is a public use airport located 3 nm east of the central business district of the city of Bloomington and southeast of the town of Normal, in McLean County, Illinois, USA.

Airport map

Aerial View

SKYbrary Partners:

Safety knowledge contributed by: